Herbert J Plaisance — WDE6917 — position and weather

sailwx.info

Track history (hours):
 
Tides and Currents Weather Stations Pressure Air Temp Water Temp Dewpoint Dewpoint Depression Visibility Wind Speed Wind Dir Waves Ship Positions

Herbert J Plaisance

Owner: S & B Marine LLC, Harvey, LA. More information available from US FCC via Universal Licensing System and Coast Guard Vessel Documentation Center.

Last reported at 2017-Aug-11 14:43 UTC. Time now 2017-Aug-24 08:40 UTC.
Position N 29°51' W 091°53'.
Warning: this ship's position is 12 days out of date.

Length 20 m; draft 3 m.

Type: Towing. MMSI: 367386576.

Date/timePositionNaut miles runAvg speedWind from/ knotsBaromVisibWave heightAir tempDewpointWater temp
2017-Aug-11 14:43N 29°51' W 091°53'4 5.6
2017-Aug-11 14:00N 29°50' W 091°57'3 5.5
2017-Aug-11 13:30N 29°50' W 092°00'3 5.8
2017-Aug-11 13:00N 29°49' W 092°03'3 6.1
2017-Aug-11 12:30N 29°48' W 092°07'1 3.0
2017-Aug-11 12:00N 29°48' W 092°08'1 2.2
2017-Aug-11 11:30N 29°49' W 092°08'0 0.9
2017-Aug-11 11:00N 29°49' W 092°08'0 0.0
2017-Aug-11 10:30N 29°49' W 092°08'0 0.0
2017-Aug-11 10:00N 29°49' W 092°08'0 0.0
2017-Aug-11 09:30N 29°49' W 092°08'0 0.0
2017-Aug-11 09:00N 29°49' W 092°08'0 0.0
2017-Aug-11 08:30N 29°49' W 092°08'0 0.0
2017-Aug-11 08:00N 29°49' W 092°08'0 0.5
2017-Aug-11 07:30N 29°49' W 092°08'1 2.6
2017-Aug-11 07:00N 29°48' W 092°09'0 0.1
2017-Aug-11 06:30N 29°48' W 092°09'0 0.0
2017-Aug-11 05:59N 29°48' W 092°09'0 0.0
2017-Aug-11 05:30N 29°48' W 092°09'1 2.7
2017-Aug-11 04:59N 29°49' W 092°08'0 0.1
2017-Aug-11 04:30N 29°49' W 092°08'0 0.0
2017-Aug-11 04:00N 29°49' W 092°08'0 0.0
2017-Aug-11 03:30N 29°49' W 092°08'0 0.0
2017-Aug-11 03:00N 29°49' W 092°08'0 0.0
2017-Aug-11 02:30N 29°49' W 092°08'0 0.0
2017-Aug-11 02:00N 29°49' W 092°08'0 0.0
2017-Aug-11 01:30N 29°49' W 092°08'1 1.8
2017-Aug-11 01:00N 29°50' W 092°08'2 3.5
2017-Aug-11 00:28N 29°52' W 092°08'1 2.8
2017-Aug-10 23:57N 29°53' W 092°08'1 2.3
2017-Aug-10 23:30N 29°54' W 092°07'2 2.5
2017-Aug-10 22:50N 29°55' W 092°09'1 0.7
2017-Aug-10 22:04N 29°56' W 092°09'0 3.7
2017-Aug-10 21:58N 29°55' W 092°09'2 3.0
2017-Aug-10 21:22N 29°54' W 092°07'1 3.5
2017-Aug-10 21:00N 29°53' W 092°08'2 4.6
2017-Aug-10 20:30N 29°51' W 092°08'2 3.6
2017-Aug-10 20:00N 29°49' W 092°08'0 0.2
2017-Aug-10 19:30N 29°49' W 092°08'1 2.5
2017-Aug-10 19:00N 29°50' W 092°08'2 3.8
2017-Aug-10 18:24N 29°52' W 092°08'2 2.7
2017-Aug-10 17:46N 29°54' W 092°07'1 2.7
2017-Aug-10 17:29N 29°55' W 092°07'1 2.5
2017-Aug-10 17:00N 29°55' W 092°09'0 0.6
2017-Aug-10 16:13N 29°56' W 092°09'1 4.2
2017-Aug-10 15:57N 29°55' W 092°08'2 2.9
2017-Aug-10 15:22N 29°53' W 092°08'2 5.2
2017-Aug-10 14:59N 29°51' W 092°08'3 5.4
2017-Aug-10 14:30N 29°49' W 092°08'0 0.6
2017-Aug-10 14:00N 29°48' W 092°08'1 1.2
2017-Aug-10 13:30N 29°49' W 092°08'0 0.0
2017-Aug-10 13:00N 29°49' W 092°08'0 0.0
2017-Aug-10 12:30N 29°49' W 092°08'0 0.0
2017-Aug-10 12:00N 29°49' W 092°08'0 0.0
2017-Aug-10 11:30N 29°49' W 092°08'0 0.0
2017-Aug-10 11:00N 29°49' W 092°08'0 0.0
2017-Aug-10 10:30N 29°49' W 092°08'0 0.0
2017-Aug-10 10:00N 29°49' W 092°08'0 0.0
2017-Aug-10 09:30N 29°49' W 092°08'0 0.0
2017-Aug-10 09:00N 29°49' W 092°08'0 0.0
2017-Aug-10 08:30N 29°49' W 092°08'0 0.0
2017-Aug-10 08:00N 29°49' W 092°08'0 0.0
2017-Aug-10 07:30N 29°49' W 092°08'0 0.2
2017-Aug-10 07:00N 29°49' W 092°08'1 2.2
2017-Aug-10 06:30N 29°50' W 092°08'1 2.1
2017-Aug-10 06:00N 29°51' W 092°08'1 2.5
2017-Aug-10 05:27N 29°52' W 092°08'1 1.7
2017-Aug-10 05:00N 29°53' W 092°08'1 1.2
2017-Aug-10 04:11N 29°54' W 092°07'1 1.3
2017-Aug-10 03:45N 29°55' W 092°07'5 0.6
2017-Aug-09 20:09N 29°59' W 092°08'  
2017-Aug-05 00:29N 29°55' W 092°09'1 1.7
2017-Aug-05 00:00N 29°55' W 092°08'1 1.6
2017-Aug-04 23:31N 29°55' W 092°07'1 2.0
2017-Aug-04 22:48N 29°53' W 092°08'1 1.9
2017-Aug-04 22:25N 29°53' W 092°08'1 2.4
2017-Aug-04 21:56N 29°51' W 092°07'1 2.2
2017-Aug-04 21:30N 29°51' W 092°08'1 2.3
2017-Aug-04 21:01N 29°49' W 092°08'1 2.2
2017-Aug-04 20:31N 29°48' W 092°08'0 0.9
2017-Aug-04 20:01N 29°49' W 092°08'3 5.1
2017-Aug-04 19:30N 29°51' W 092°07'4 3.6
2017-Aug-04 18:21N 29°55' W 092°09'1 0.7
2017-Aug-04 17:32N 29°56' W 092°09'0 1.7
2017-Aug-04 17:24N 29°56' W 092°09'0 1.0
2017-Aug-04 17:00N 29°55' W 092°09'1 1.6
2017-Aug-04 16:30N 29°55' W 092°08'1 1.3
2017-Aug-04 15:55N 29°55' W 092°07'1 2.0
2017-Aug-04 15:14N 29°53' W 092°07'0 1.7
2017-Aug-04 15:00N 29°53' W 092°08'2 1.8
2017-Aug-04 13:57N 29°51' W 092°07'1 2.1
2017-Aug-04 13:30N 29°50' W 092°08'1 2.1
2017-Aug-04 13:00N 29°49' W 092°08'0 0.9
2017-Aug-04 12:31N 29°49' W 092°08'0 0.0
2017-Aug-04 12:00N 29°49' W 092°08'0 0.0
2017-Aug-04 11:31N 29°49' W 092°08'0 0.0
2017-Aug-04 11:01N 29°49' W 092°08'0 0.0
2017-Aug-04 10:30N 29°49' W 092°08'6 1.8
2017-Aug-04 06:56N 29°55' W 092°09'1 0.9
2017-Aug-04 06:03N 29°55' W 092°08'2 0.8
2017-Aug-04 03:43N 29°53' W 092°08'1 1.4
2017-Aug-04 03:05N 29°52' W 092°08'1 1.6
2017-Aug-04 02:28N 29°51' W 092°07'1 1.5
2017-Aug-04 01:57N 29°50' W 092°08'1 1.4
2017-Aug-04 01:30N 29°50' W 092°08'1 2.1
2017-Aug-04 01:00N 29°49' W 092°08'0 0.1
2017-Aug-04 00:30N 29°49' W 092°08'0 0.2
2017-Aug-04 00:00N 29°49' W 092°08'0 0.1
2017-Aug-03 23:30N 29°49' W 092°08'1 1.2
2017-Aug-03 23:00N 29°48' W 092°08'1 1.7
2017-Aug-03 22:30N 29°48' W 092°08'1 1.1
2017-Aug-03 22:00N 29°47' W 092°09'1 2.5
2017-Aug-03 21:30N 29°47' W 092°07'2 4.7
2017-Aug-03 21:00N 29°48' W 092°05'  
Track history (hours):
 
Tides and Currents Weather Stations Pressure Air Temp Water Temp Dewpoint Dewpoint Depression Visibility Wind Speed Wind Dir Waves Ship Positions

Herbert J Plaisance

Owner: S & B Marine LLC, Harvey, LA. More information available from US FCC via Universal Licensing System and Coast Guard Vessel Documentation Center.

Last reported at 2017-Aug-11 14:43 UTC. Time now 2017-Aug-24 08:40 UTC.
Position N 29°51' W 091°53'.
Warning: this ship's position is 12 days out of date.

Length 20 m; draft 3 m.

Type: Towing. MMSI: 367386576.

Date/timePositionNaut miles runAvg speedWind from/ knotsBaromVisibWave heightAir tempDewpointWater temp
2017-Aug-11 14:43N 29°51' W 091°53'4 5.6
2017-Aug-11 14:00N 29°50' W 091°57'3 5.5
2017-Aug-11 13:30N 29°50' W 092°00'3 5.8
2017-Aug-11 13:00N 29°49' W 092°03'3 6.1
2017-Aug-11 12:30N 29°48' W 092°07'1 3.0
2017-Aug-11 12:00N 29°48' W 092°08'1 2.2
2017-Aug-11 11:30N 29°49' W 092°08'0 0.9
2017-Aug-11 11:00N 29°49' W 092°08'0 0.0
2017-Aug-11 10:30N 29°49' W 092°08'0 0.0
2017-Aug-11 10:00N 29°49' W 092°08'0 0.0
2017-Aug-11 09:30N 29°49' W 092°08'0 0.0
2017-Aug-11 09:00N 29°49' W 092°08'0 0.0
2017-Aug-11 08:30N 29°49' W 092°08'0 0.0
2017-Aug-11 08:00N 29°49' W 092°08'0 0.5
2017-Aug-11 07:30N 29°49' W 092°08'1 2.6
2017-Aug-11 07:00N 29°48' W 092°09'0 0.1
2017-Aug-11 06:30N 29°48' W 092°09'0 0.0
2017-Aug-11 05:59N 29°48' W 092°09'0 0.0
2017-Aug-11 05:30N 29°48' W 092°09'1 2.7
2017-Aug-11 04:59N 29°49' W 092°08'0 0.1
2017-Aug-11 04:30N 29°49' W 092°08'0 0.0
2017-Aug-11 04:00N 29°49' W 092°08'0 0.0
2017-Aug-11 03:30N 29°49' W 092°08'0 0.0
2017-Aug-11 03:00N 29°49' W 092°08'0 0.0
2017-Aug-11 02:30N 29°49' W 092°08'0 0.0
2017-Aug-11 02:00N 29°49' W 092°08'0 0.0
2017-Aug-11 01:30N 29°49' W 092°08'1 1.8
2017-Aug-11 01:00N 29°50' W 092°08'2 3.5
2017-Aug-11 00:28N 29°52' W 092°08'1 2.8
2017-Aug-10 23:57N 29°53' W 092°08'1 2.3
2017-Aug-10 23:30N 29°54' W 092°07'2 2.5
2017-Aug-10 22:50N 29°55' W 092°09'1 0.7
2017-Aug-10 22:04N 29°56' W 092°09'0 3.7
2017-Aug-10 21:58N 29°55' W 092°09'2 3.0
2017-Aug-10 21:22N 29°54' W 092°07'1 3.5
2017-Aug-10 21:00N 29°53' W 092°08'2 4.6
2017-Aug-10 20:30N 29°51' W 092°08'2 3.6
2017-Aug-10 20:00N 29°49' W 092°08'0 0.2
2017-Aug-10 19:30N 29°49' W 092°08'1 2.5
2017-Aug-10 19:00N 29°50' W 092°08'2 3.8
2017-Aug-10 18:24N 29°52' W 092°08'2 2.7
2017-Aug-10 17:46N 29°54' W 092°07'1 2.7
2017-Aug-10 17:29N 29°55' W 092°07'1 2.5
2017-Aug-10 17:00N 29°55' W 092°09'0 0.6
2017-Aug-10 16:13N 29°56' W 092°09'1 4.2
2017-Aug-10 15:57N 29°55' W 092°08'2 2.9
2017-Aug-10 15:22N 29°53' W 092°08'2 5.2
2017-Aug-10 14:59N 29°51' W 092°08'3 5.4
2017-Aug-10 14:30N 29°49' W 092°08'0 0.6
2017-Aug-10 14:00N 29°48' W 092°08'1 1.2
2017-Aug-10 13:30N 29°49' W 092°08'0 0.0
2017-Aug-10 13:00N 29°49' W 092°08'0 0.0
2017-Aug-10 12:30N 29°49' W 092°08'0 0.0
2017-Aug-10 12:00N 29°49' W 092°08'0 0.0
2017-Aug-10 11:30N 29°49' W 092°08'0 0.0
2017-Aug-10 11:00N 29°49' W 092°08'0 0.0
2017-Aug-10 10:30N 29°49' W 092°08'0 0.0
2017-Aug-10 10:00N 29°49' W 092°08'0 0.0
2017-Aug-10 09:30N 29°49' W 092°08'0 0.0
2017-Aug-10 09:00N 29°49' W 092°08'0 0.0
2017-Aug-10 08:30N 29°49' W 092°08'0 0.0
2017-Aug-10 08:00N 29°49' W 092°08'0 0.0
2017-Aug-10 07:30N 29°49' W 092°08'0 0.2
2017-Aug-10 07:00N 29°49' W 092°08'1 2.2
2017-Aug-10 06:30N 29°50' W 092°08'1 2.1
2017-Aug-10 06:00N 29°51' W 092°08'1 2.5
2017-Aug-10 05:27N 29°52' W 092°08'1 1.7
2017-Aug-10 05:00N 29°53' W 092°08'1 1.2
2017-Aug-10 04:11N 29°54' W 092°07'1 1.3
2017-Aug-10 03:45N 29°55' W 092°07'5 0.6
2017-Aug-09 20:09N 29°59' W 092°08'  
2017-Aug-05 00:29N 29°55' W 092°09'1 1.7
2017-Aug-05 00:00N 29°55' W 092°08'1 1.6
2017-Aug-04 23:31N 29°55' W 092°07'1 2.0
2017-Aug-04 22:48N 29°53' W 092°08'1 1.9
2017-Aug-04 22:25N 29°53' W 092°08'1 2.4
2017-Aug-04 21:56N 29°51' W 092°07'1 2.2
2017-Aug-04 21:30N 29°51' W 092°08'1 2.3
2017-Aug-04 21:01N 29°49' W 092°08'1 2.2
2017-Aug-04 20:31N 29°48' W 092°08'0 0.9
2017-Aug-04 20:01N 29°49' W 092°08'3 5.1
2017-Aug-04 19:30N 29°51' W 092°07'4 3.6
2017-Aug-04 18:21N 29°55' W 092°09'1 0.7
2017-Aug-04 17:32N 29°56' W 092°09'0 1.7
2017-Aug-04 17:24N 29°56' W 092°09'0 1.0
2017-Aug-04 17:00N 29°55' W 092°09'1 1.6
2017-Aug-04 16:30N 29°55' W 092°08'1 1.3
2017-Aug-04 15:55N 29°55' W 092°07'1 2.0
2017-Aug-04 15:14N 29°53' W 092°07'0 1.7
2017-Aug-04 15:00N 29°53' W 092°08'2 1.8
2017-Aug-04 13:57N 29°51' W 092°07'1 2.1
2017-Aug-04 13:30N 29°50' W 092°08'1 2.1
2017-Aug-04 13:00N 29°49' W 092°08'0 0.9
2017-Aug-04 12:31N 29°49' W 092°08'0 0.0
2017-Aug-04 12:00N 29°49' W 092°08'0 0.0
2017-Aug-04 11:31N 29°49' W 092°08'0 0.0
2017-Aug-04 11:01N 29°49' W 092°08'0 0.0
2017-Aug-04 10:30N 29°49' W 092°08'6 1.8
2017-Aug-04 06:56N 29°55' W 092°09'1 0.9
2017-Aug-04 06:03N 29°55' W 092°08'2 0.8
2017-Aug-04 03:43N 29°53' W 092°08'1 1.4
2017-Aug-04 03:05N 29°52' W 092°08'1 1.6
2017-Aug-04 02:28N 29°51' W 092°07'1 1.5
2017-Aug-04 01:57N 29°50' W 092°08'1 1.4
2017-Aug-04 01:30N 29°50' W 092°08'1 2.1
2017-Aug-04 01:00N 29°49' W 092°08'0 0.1
2017-Aug-04 00:30N 29°49' W 092°08'0 0.2
2017-Aug-04 00:00N 29°49' W 092°08'0 0.1
2017-Aug-03 23:30N 29°49' W 092°08'1 1.2
2017-Aug-03 23:00N 29°48' W 092°08'1 1.7
2017-Aug-03 22:30N 29°48' W 092°08'1 1.1
2017-Aug-03 22:00N 29°47' W 092°09'1 2.5
2017-Aug-03 21:30N 29°47' W 092°07'2 4.7
2017-Aug-03 21:00N 29°48' W 092°05'  

Dump ship's entire track history